createdAt,value
2022-10-25T00:15:02.869Z,13.0
2022-10-25T00:30:02.309Z,12.8
2022-10-25T00:45:02.760Z,12.7
2022-10-25T01:00:03.179Z,12.8
2022-10-25T01:15:02.675Z,12.9
2022-10-25T01:30:03.077Z,12.9
2022-10-25T01:45:02.698Z,12.9
2022-10-25T02:00:02.953Z,12.9
2022-10-25T02:15:02.380Z,13.0
2022-10-25T02:30:02.833Z,13.0
2022-10-25T02:45:02.256Z,12.9
2022-10-25T03:00:02.827Z,12.9
2022-10-25T03:15:02.112Z,12.9
2022-10-25T03:30:02.702Z,13.0
2022-10-25T03:45:02.978Z,13.0
2022-10-25T04:00:02.438Z,13.0
2022-10-25T04:15:02.846Z,13.1
2022-10-25T04:30:02.287Z,13.1
2022-10-25T04:45:02.715Z,13.1
2022-10-25T05:00:03.193Z,13.0
2022-10-25T05:15:02.733Z,12.9
2022-10-25T05:30:03.061Z,12.9
2022-10-25T05:45:02.652Z,12.9
2022-10-25T06:00:02.923Z,13.0
2022-10-25T06:15:02.383Z,13.2
2022-10-25T06:30:02.818Z,13.2
2022-10-25T06:45:03.252Z,13.2
2022-10-25T07:00:02.774Z,13.0
2022-10-25T07:15:03.149Z,13.0
2022-10-25T07:30:02.765Z,13.2
2022-10-25T07:45:03.011Z,13.4
2022-10-25T08:00:02.453Z,13.6
2022-10-25T08:15:02.907Z,13.8
2022-10-25T08:30:02.303Z,14.0
2022-10-25T08:45:02.777Z,14.6
2022-10-25T09:00:03.195Z,14.5
2022-10-25T09:15:02.793Z,14.3
2022-10-25T09:30:05.146Z,14.4
2022-10-25T09:45:03.540Z,14.5
2022-10-25T10:00:02.967Z,14.6
2022-10-25T10:15:02.598Z,15.5
2022-10-25T10:30:02.817Z,15.5
2022-10-25T10:45:03.272Z,15.3
2022-10-25T11:00:02.805Z,15.9
2022-10-25T11:15:03.146Z,17.2
2022-10-25T11:30:02.794Z,18.2
2022-10-25T11:45:03.020Z,17.8
2022-10-25T12:00:02.425Z,18.4
2022-10-25T12:15:02.883Z,19.2
2022-10-25T12:30:02.297Z,18.1
2022-10-25T12:45:02.830Z,18.2
2022-10-25T13:00:02.190Z,17.4
2022-10-25T13:15:02.816Z,17.4
2022-10-25T13:30:02.148Z,16.6
2022-10-25T13:45:02.463Z,16.1
2022-10-25T14:00:03.152Z,16.0
2022-10-25T14:15:02.371Z,16.1
2022-10-25T14:30:02.946Z,16.0
2022-10-25T14:45:02.244Z,15.9
2022-10-25T15:00:02.863Z,15.5
2022-10-25T15:15:02.118Z,15.1
2022-10-25T15:30:02.568Z,14.7
2022-10-25T15:45:03.004Z,14.3
2022-10-25T16:00:02.407Z,13.8
2022-10-25T16:15:02.874Z,13.2
2022-10-25T16:30:02.297Z,12.6
2022-10-25T16:45:02.862Z,12.0
2022-10-25T17:00:02.164Z,11.5
2022-10-25T17:15:02.607Z,11.1
2022-10-25T17:30:03.055Z,10.8
2022-10-25T17:45:02.466Z,10.4
2022-10-25T18:00:02.933Z,10.1
2022-10-25T18:15:02.376Z,9.8
2022-10-25T18:30:02.898Z,9.5
2022-10-25T18:45:02.230Z,9.3
2022-10-25T19:00:02.889Z,9.1
2022-10-25T19:15:02.119Z,8.9
2022-10-25T19:30:02.541Z,8.6
2022-10-25T19:45:03.018Z,8.5
2022-10-25T20:00:02.423Z,8.4
2022-10-25T20:15:02.972Z,8.3
2022-10-25T20:30:02.320Z,8.1
2022-10-25T21:00:02.208Z,7.6
2022-10-25T21:15:02.695Z,7.6
2022-10-25T21:30:03.090Z,7.5
2022-10-25T21:45:02.508Z,7.4
2022-10-25T22:00:02.968Z,7.1
2022-10-25T22:15:02.387Z,7.0
2022-10-25T22:30:02.947Z,7.0
2022-10-25T22:45:02.250Z,6.9
2022-10-25T23:00:02.872Z,6.8
2022-10-25T23:15:02.128Z,6.7
2022-10-25T23:30:02.575Z,6.7
2022-10-25T23:45:03.048Z,6.7
